createdAt,value
2018-09-04T00:03:10.029Z,20.19
2018-09-04T00:08:04.697Z,20.25
2018-09-04T00:12:58.805Z,20.30
2018-09-04T00:17:54.240Z,20.15
2018-09-04T00:22:48.290Z,20.20
2018-09-04T00:27:41.851Z,20.10
2018-09-04T00:32:35.553Z,20.25
2018-09-04T00:37:31.157Z,20.38
2018-09-04T00:42:25.975Z,20.42
2018-09-04T00:47:21.018Z,20.47
2018-09-04T00:52:14.697Z,20.43
2018-09-04T00:57:08.889Z,20.43
2018-09-04T01:02:02.998Z,20.49
2018-09-04T01:06:56.275Z,20.49
2018-09-04T01:11:50.468Z,20.49
2018-09-04T01:16:44.896Z,20.63
2018-09-04T01:21:39.206Z,20.69
2018-09-04T01:26:34.296Z,20.76
2018-09-04T01:31:28.472Z,20.99
2018-09-04T01:36:22.657Z,20.95
2018-09-04T01:41:16.796Z,21.08
2018-09-04T01:46:10.719Z,21.13
2018-09-04T01:51:05.827Z,21.33
2018-09-04T01:56:00.229Z,21.45
2018-09-04T02:00:54.666Z,21.58
2018-09-04T02:05:47.992Z,21.49
2018-09-04T02:10:42.556Z,21.44
2018-09-04T02:15:36.395Z,21.40
2018-09-04T02:20:29.676Z,21.31
2018-09-04T02:25:22.800Z,21.34
2018-09-04T02:30:15.824Z,21.34
2018-09-04T02:35:08.944Z,21.21
2018-09-04T02:40:02.063Z,21.00
2018-09-04T02:44:55.149Z,20.86
2018-09-04T02:49:48.246Z,20.86
2018-09-04T02:54:41.419Z,20.98
2018-09-04T02:59:34.489Z,21.07
2018-09-04T03:04:27.557Z,21.14
2018-09-04T03:09:20.563Z,21.21
2018-09-04T03:14:13.746Z,21.24
2018-09-04T03:19:06.766Z,21.31
2018-09-04T03:24:00.189Z,21.38
2018-09-04T03:28:53.202Z,21.30
2018-09-04T03:33:46.428Z,21.25
2018-09-04T03:38:39.612Z,21.23
2018-09-04T03:43:32.588Z,21.30
2018-09-04T03:48:25.922Z,21.19
2018-09-04T03:53:19.014Z,21.27
2018-09-04T03:58:11.996Z,21.30
2018-09-04T04:03:05.467Z,21.37
2018-09-04T04:07:58.584Z,21.28
2018-09-04T04:12:51.927Z,21.47
2018-09-04T04:17:45.145Z,21.54
2018-09-04T04:22:38.590Z,21.57
2018-09-04T04:27:31.726Z,21.68
2018-09-04T04:32:25.807Z,21.73
2018-09-04T04:37:18.919Z,21.84
2018-09-04T04:42:12.147Z,21.97
2018-09-04T04:47:05.340Z,22.16
2018-09-04T04:51:58.548Z,22.33
2018-09-04T04:56:51.604Z,22.30
2018-09-04T05:01:44.736Z,22.33
2018-09-04T05:06:37.902Z,22.40
2018-09-04T05:11:31.120Z,22.39
2018-09-04T05:16:24.425Z,22.38
2018-09-04T05:21:17.514Z,22.56
2018-09-04T05:26:10.815Z,22.79
2018-09-04T05:31:04.137Z,22.75
2018-09-04T05:35:58.699Z,22.65
2018-09-04T05:40:52.387Z,22.53
2018-09-04T05:45:46.173Z,22.46
2018-09-04T05:50:39.948Z,22.53
2018-09-04T05:55:33.631Z,22.55
2018-09-04T06:00:30.205Z,22.71
2018-09-04T06:05:23.933Z,22.92
2018-09-04T06:10:17.325Z,23.11
2018-09-04T06:15:11.125Z,23.30
2018-09-04T06:20:04.583Z,23.53
2018-09-04T06:24:58.152Z,23.67
2018-09-04T06:29:51.183Z,24.04
2018-09-04T06:34:44.513Z,23.82
2018-09-04T06:39:37.645Z,23.40
2018-09-04T06:44:30.762Z,23.36
2018-09-04T06:49:23.702Z,23.56
2018-09-04T06:54:17.105Z,23.78
2018-09-04T06:59:10.294Z,23.96
2018-09-04T07:04:03.401Z,24.18
2018-09-04T07:08:57.253Z,24.23
2018-09-04T07:13:50.359Z,24.39
2018-09-04T07:18:43.404Z,24.46
2018-09-04T07:23:36.619Z,24.57
2018-09-04T07:28:29.678Z,24.70
2018-09-04T07:33:23.189Z,24.79
2018-09-04T07:38:16.311Z,25.03
2018-09-04T07:43:09.464Z,25.14
2018-09-04T07:48:02.593Z,25.22
2018-09-04T07:52:55.729Z,25.38
2018-09-04T07:57:48.708Z,25.45
2018-09-04T08:02:41.759Z,25.45
2018-09-04T08:07:35.024Z,25.63
2018-09-04T08:12:28.274Z,25.72
2018-09-04T08:17:21.878Z,25.85
2018-09-04T08:22:14.943Z,25.87
2018-09-04T08:27:08.025Z,25.94
2018-09-04T08:32:01.396Z,26.14
2018-09-04T08:36:54.799Z,26.32
2018-09-04T08:41:47.858Z,26.53
2018-09-04T08:46:41.055Z,26.78
2018-09-04T08:51:34.054Z,27.14
2018-09-04T08:56:27.312Z,27.42
2018-09-04T09:01:20.523Z,27.85
2018-09-04T09:06:13.584Z,27.95
2018-09-04T09:11:06.687Z,28.02
2018-09-04T09:16:00.193Z,28.60
2018-09-04T09:20:53.323Z,28.94
2018-09-04T09:25:46.496Z,29.25
2018-09-04T09:30:39.568Z,29.27
2018-09-04T09:35:32.677Z,29.49
2018-09-04T09:40:25.719Z,29.51
2018-09-04T09:45:18.851Z,29.41
2018-09-04T09:50:12.006Z,29.19
2018-09-04T09:55:06.026Z,29.24
2018-09-04T09:59:59.352Z,29.26
2018-09-04T10:04:52.390Z,28.90
2018-09-04T10:09:45.549Z,28.87
2018-09-04T10:14:38.737Z,28.55
2018-09-04T10:19:32.071Z,28.50
2018-09-04T10:24:25.437Z,28.35
2018-09-04T10:29:18.444Z,28.39
2018-09-04T10:34:14.251Z,28.50
2018-09-04T10:39:13.767Z,28.82
2018-09-04T10:44:07.085Z,29.37
2018-09-04T10:49:00.334Z,29.48
2018-09-04T10:53:53.328Z,30.01
2018-09-04T10:58:46.957Z,30.30
2018-09-04T11:03:40.293Z,30.43
2018-09-04T11:08:34.324Z,30.30
2018-09-04T11:13:27.443Z,30.37
2018-09-04T11:18:20.740Z,30.28
2018-09-04T11:23:13.829Z,30.19
2018-09-04T11:28:07.070Z,30.43
2018-09-04T11:33:00.027Z,30.38
2018-09-04T11:37:53.232Z,30.24
2018-09-04T11:42:46.419Z,30.13
2018-09-04T11:47:41.205Z,30.19
2018-09-04T11:52:34.162Z,29.74
2018-09-04T11:57:27.488Z,29.51
2018-09-04T12:02:24.203Z,29.02
2018-09-04T12:07:17.388Z,28.74
2018-09-04T12:12:14.872Z,28.65
2018-09-04T12:17:08.622Z,28.70
2018-09-04T12:22:02.059Z,29.10
2018-09-04T12:26:55.221Z,29.38
2018-09-04T12:31:48.275Z,29.57
2018-09-04T12:36:41.504Z,29.63
2018-09-04T12:41:34.724Z,29.42
2018-09-04T12:46:30.166Z,29.29
2018-09-04T12:51:23.256Z,29.19
2018-09-04T12:56:16.383Z,29.37
2018-09-04T13:01:09.494Z,29.66
2018-09-04T13:06:02.529Z,30.03
2018-09-04T13:10:55.548Z,30.26
2018-09-04T13:15:50.890Z,29.91
2018-09-04T13:20:44.122Z,29.75
2018-09-04T13:25:37.092Z,29.65
2018-09-04T13:30:30.161Z,29.32
2018-09-04T13:35:23.200Z,29.02
2018-09-04T13:40:16.367Z,28.94
2018-09-04T13:45:09.558Z,28.76
2018-09-04T13:50:02.655Z,28.70
2018-09-04T13:54:55.982Z,28.54
2018-09-04T13:59:49.147Z,28.36
2018-09-04T14:04:42.593Z,28.28
2018-09-04T14:09:35.863Z,28.10
2018-09-04T14:14:28.913Z,28.12
2018-09-04T14:19:22.172Z,28.17
2018-09-04T14:24:15.174Z,28.06
2018-09-04T14:29:08.142Z,28.02
2018-09-04T14:34:01.335Z,28.09
2018-09-04T14:38:54.407Z,28.30
2018-09-04T14:43:47.573Z,28.45
2018-09-04T14:48:41.023Z,28.45
2018-09-04T14:53:37.582Z,28.48
2018-09-04T14:58:30.806Z,28.46
2018-09-04T15:08:58.826Z,28.00
2018-09-04T15:13:52.083Z,28.09
2018-09-04T15:18:45.879Z,27.96
2018-09-04T15:23:38.975Z,28.01
2018-09-04T15:28:32.059Z,27.65
2018-09-04T15:33:25.254Z,27.48
2018-09-04T15:38:18.308Z,27.37
2018-09-04T15:43:11.444Z,27.33
2018-09-04T15:48:04.960Z,27.21
2018-09-04T15:52:58.283Z,27.14
2018-09-04T15:57:51.516Z,27.07
2018-09-04T16:02:44.595Z,26.93
2018-09-04T16:07:37.639Z,26.94
2018-09-04T16:12:31.936Z,26.90
2018-09-04T16:17:25.553Z,26.75
2018-09-04T16:22:18.837Z,26.71
2018-09-04T16:27:11.979Z,26.61
2018-09-04T16:32:05.046Z,26.51
2018-09-04T16:36:58.183Z,26.54
2018-09-04T16:41:51.238Z,26.44
2018-09-04T16:46:44.446Z,26.46
2018-09-04T16:51:38.105Z,26.40
2018-09-04T16:56:31.244Z,26.46
2018-09-04T17:01:24.715Z,26.30
2018-09-04T17:06:17.841Z,26.27
2018-09-04T17:11:10.858Z,26.24
2018-09-04T17:16:03.891Z,26.01
2018-09-04T17:20:57.263Z,25.94
2018-09-04T17:25:50.476Z,25.89
2018-09-04T17:30:43.913Z,25.86
2018-09-04T17:35:36.950Z,25.95
2018-09-04T17:40:30.189Z,25.91
2018-09-04T17:45:23.356Z,25.90
2018-09-04T17:50:16.494Z,26.02
2018-09-04T17:55:09.951Z,25.93
2018-09-04T18:00:03.412Z,25.95
2018-09-04T18:04:56.711Z,25.86
2018-09-04T18:09:49.775Z,25.95
2018-09-04T18:14:42.811Z,25.94
2018-09-04T18:19:35.993Z,25.91
2018-09-04T18:24:29.401Z,25.91
2018-09-04T18:29:22.431Z,25.84
2018-09-04T18:34:15.516Z,25.76
2018-09-04T18:39:08.990Z,25.82
2018-09-04T18:44:02.056Z,25.88
2018-09-04T18:48:56.208Z,26.04
2018-09-04T18:53:49.239Z,26.09
2018-09-04T18:58:42.417Z,25.30
2018-09-04T19:03:35.526Z,22.03
2018-09-04T19:08:28.490Z,20.50
2018-09-04T19:13:21.887Z,19.99
2018-09-04T19:18:14.932Z,19.68
2018-09-04T19:23:07.964Z,19.63
2018-09-04T19:28:00.950Z,19.54
2018-09-04T19:32:53.943Z,19.69
2018-09-04T19:37:46.978Z,20.39
2018-09-04T19:42:41.137Z,20.98
2018-09-04T19:47:34.104Z,21.01
2018-09-04T19:52:27.043Z,21.12
2018-09-04T19:57:20.056Z,20.90
2018-09-04T20:02:13.235Z,20.49
2018-09-04T20:07:06.402Z,20.56
2018-09-04T20:11:59.743Z,20.61
2018-09-04T20:21:45.238Z,21.09
2018-09-04T20:26:38.307Z,21.25
2018-09-04T20:31:31.273Z,21.32
2018-09-04T20:36:24.388Z,21.22
2018-09-04T20:41:18.015Z,21.21
2018-09-04T20:46:11.085Z,21.36
2018-09-04T20:51:04.382Z,21.58
2018-09-04T20:55:57.375Z,22.12
2018-09-04T21:01:01.454Z,21.34
2018-09-04T21:06:05.623Z,20.26
2018-09-04T21:10:58.564Z,19.70
2018-09-04T21:15:51.480Z,19.06
2018-09-04T21:20:44.435Z,18.86
2018-09-04T21:25:37.677Z,18.73
2018-09-04T21:30:30.800Z,18.56
2018-09-04T21:35:24.094Z,18.28
2018-09-04T21:40:17.064Z,18.31
2018-09-04T21:45:10.121Z,18.31
2018-09-04T21:50:03.529Z,18.33
2018-09-04T21:54:56.603Z,18.14
2018-09-04T21:59:49.979Z,18.05
2018-09-04T22:04:43.544Z,18.06
2018-09-04T22:09:37.390Z,18.00
2018-09-04T22:14:30.604Z,18.02
2018-09-04T22:19:23.628Z,18.03
2018-09-04T22:24:16.605Z,17.90
2018-09-04T22:29:09.518Z,17.98
2018-09-04T22:34:02.479Z,18.09
2018-09-04T22:38:55.543Z,18.01
2018-09-04T22:43:48.537Z,18.06
2018-09-04T22:48:41.530Z,18.08
2018-09-04T22:53:34.558Z,17.92
2018-09-04T22:58:27.823Z,18.11
2018-09-04T23:03:20.912Z,18.29
2018-09-04T23:08:13.977Z,18.46
2018-09-04T23:13:06.925Z,18.35
2018-09-04T23:18:00.080Z,18.41
2018-09-04T23:22:53.003Z,18.39
2018-09-04T23:27:45.916Z,18.38
2018-09-04T23:32:39.690Z,18.30
2018-09-04T23:37:32.732Z,18.36
2018-09-04T23:42:30.300Z,18.33
2018-09-04T23:47:23.198Z,18.34
2018-09-04T23:52:16.253Z,18.42
2018-09-04T23:57:09.838Z,18.51
